Time;durP1;ratioP1;P1;durP2;ratioP2;P2;SDS_P1;SDS_P2;PMS_P1;PMS_P2;Temp;Humidity;BMP_temperature;BMP_pressure;BME280_temperature;BME280_humidity;BME280_pressure;Samples;Min_cycle;Max_cycle;Signal;HPM_P1;HPM_P2
2021/09/18 00:02:21;;;;;;;3.17;0.80;;;;;;;13.61;75.96;100486.66;5050703;28;20029;-79
2021/09/18 00:04:46;;;;;;;4.80;0.80;;;;;;;13.69;75.60;100487.38;5045964;28;20100;-79
2021/09/18 00:07:11;;;;;;;1.95;0.80;;;;;;;13.77;75.34;100485.44;5044309;28;20047;-79
2021/09/18 00:09:37;;;;;;;3.03;1.00;;;;;;;13.78;75.22;100485.44;5044456;28;20052;-79
2021/09/18 00:12:03;;;;;;;4.35;1.00;;;;;;;13.77;75.25;100491.63;5045827;28;20041;-80
2021/09/18 00:14:28;;;;;;;3.42;1.40;;;;;;;13.85;75.37;100485.28;5044485;28;20049;-80
2021/09/18 00:16:53;;;;;;;2.88;1.17;;;;;;;13.83;75.30;100482.66;5046394;28;20048;-79
2021/09/18 00:19:19;;;;;;;3.80;1.13;;;;;;;13.85;75.23;100488.81;5041559;28;20033;-79
2021/09/18 00:21:44;;;;;;;3.00;1.30;;;;;;;13.87;75.10;100481.69;5049901;28;20040;-79
2021/09/18 00:24:09;;;;;;;4.50;1.20;;;;;;;13.92;75.15;100478.97;5043234;28;20067;-79
2021/09/18 00:26:36;;;;;;;2.97;1.25;;;;;;;13.97;75.34;100477.97;5046533;28;20052;-80
2021/09/18 00:29:03;;;;;;;2.85;1.13;;;;;;;14.02;74.74;100480.53;5027485;28;20395;-79
2021/09/18 00:31:28;;;;;;;3.28;1.40;;;;;;;14.06;74.77;100486.63;5052237;28;20025;-79
2021/09/18 00:33:54;;;;;;;3.30;1.02;;;;;;;14.06;74.56;100484.84;5056332;28;20509;-79
2021/09/18 00:36:19;;;;;;;2.67;1.10;;;;;;;14.09;74.89;100478.59;5052780;28;20119;-79
2021/09/18 00:38:44;;;;;;;2.22;1.10;;;;;;;14.11;74.65;100479.44;5044269;28;20042;-79
2021/09/18 00:41:10;;;;;;;2.70;1.10;;;;;;;14.10;74.94;100488.31;5044233;28;20569;-79
2021/09/18 00:43:35;;;;;;;1.75;0.77;;;;;;;14.13;74.92;100488.25;5048935;28;20086;-79
2021/09/18 00:46:01;;;;;;;1.75;0.90;;;;;;;14.15;74.50;100481.13;5032283;28;20040;-79
2021/09/18 00:48:26;;;;;;;2.13;0.80;;;;;;;14.15;74.54;100487.31;5042351;28;20048;-79
2021/09/18 00:50:52;;;;;;;1.73;0.90;;;;;;;14.12;74.90;100491.78;5052690;28;20029;-79
2021/09/18 00:53:17;;;;;;;2.70;0.95;;;;;;;14.11;74.71;100490.06;5041462;28;20501;-79
2021/09/18 00:55:43;;;;;;;2.38;1.00;;;;;;;13.99;75.12;100497.38;5045518;28;20033;-79
2021/09/18 00:58:09;;;;;;;1.80;0.95;;;;;;;13.92;75.64;100495.75;5042327;28;20037;-79
2021/09/18 01:00:34;;;;;;;2.67;1.40;;;;;;;13.90;75.76;100497.56;5044503;28;20064;-80
2021/09/18 01:02:59;;;;;;;2.88;1.10;;;;;;;13.91;75.76;100494.00;5043080;28;20086;-79
2021/09/18 01:05:25;;;;;;;1.48;0.90;;;;;;;13.92;75.88;100489.56;5044021;28;20032;-79
2021/09/18 01:07:53;;;;;;;2.13;1.20;;;;;;;13.99;75.90;100485.88;5043971;28;20648;-79
2021/09/18 01:10:19;;;;;;;2.95;1.50;;;;;;;13.96;76.06;100476.22;5047900;28;20051;-80
2021/09/18 01:13:09;;;;;;;4.35;2.05;;;;;;;13.98;75.41;100477.03;5049820;28;20566;-79
2021/09/18 01:15:36;;;;;;;3.17;1.83;;;;;;;13.95;75.46;100477.09;5048052;28;20037;-79
2021/09/18 01:18:03;;;;;;;3.30;1.55;;;;;;;13.97;75.49;100477.97;5049036;28;20036;-79
2021/09/18 01:20:29;;;;;;;4.45;1.30;;;;;;;14.07;75.37;100478.66;5059169;28;20028;-79
2021/09/18 01:22:59;;;;;;;2.72;1.10;;;;;;;14.07;74.96;100480.41;5045039;28;20491;-79
2021/09/18 01:25:28;;;;;;;2.45;1.02;;;;;;;14.09;74.88;100479.47;5047833;28;20124;-79
2021/09/18 01:27:53;;;;;;;3.70;1.00;;;;;;;14.13;75.14;100482.94;5052590;28;20061;-79
2021/09/18 01:30:22;;;;;;;3.60;1.15;;;;;;;14.13;75.07;100486.47;5032239;28;20068;-79
2021/09/18 01:32:48;;;;;;;3.47;1.20;;;;;;;14.14;74.80;100487.34;5045043;28;20119;-79
2021/09/18 01:35:14;;;;;;;4.53;1.55;;;;;;;14.16;74.97;100488.19;5041956;28;20029;-79
2021/09/18 01:37:40;;;;;;;4.93;2.53;;;;;;;14.09;74.95;100494.50;5045053;28;20108;-79
2021/09/18 01:40:07;;;;;;;6.13;2.00;;;;;;;14.06;75.15;100499.91;5041188;28;20482;-79
2021/09/18 01:42:33;;;;;;;4.68;2.20;;;;;;;14.05;75.35;100499.03;5043929;28;20035;-79
2021/09/18 01:44:58;;;;;;;3.55;2.10;;;;;;;14.06;75.75;100500.75;5042021;28;20124;-79
2021/09/18 01:47:23;;;;;;;4.95;2.08;;;;;;;13.99;76.04;100497.38;5043560;28;20045;-79
2021/09/18 01:49:49;;;;;;;3.58;1.85;;;;;;;14.05;76.06;100503.47;5042414;28;20037;-79
2021/09/18 01:52:35;;;;;;;3.10;1.63;;;;;;;14.10;75.99;100501.59;5043243;28;20120;-79
2021/09/18 01:55:00;;;;;;;3.25;1.48;;;;;;;14.14;75.87;100498.81;5035101;28;20037;-79
2021/09/18 01:57:26;;;;;;;5.30;1.88;;;;;;;14.19;75.70;100504.03;5027035;28;20060;-79
2021/09/18 01:59:51;;;;;;;2.90;1.17;;;;;;;14.18;75.30;100503.16;5041588;28;20057;-79
2021/09/18 02:02:16;;;;;;;2.70;1.15;;;;;;;14.10;75.57;100496.28;5045491;28;20040;-79
2021/09/18 02:04:42;;;;;;;2.63;1.35;;;;;;;14.03;75.97;100499.03;5044504;28;20519;-79
2021/09/18 02:07:07;;;;;;;3.15;1.40;;;;;;;14.03;76.04;100499.03;5047393;28;20037;-79
2021/09/18 02:09:32;;;;;;;2.20;1.02;;;;;;;14.00;76.34;100499.13;5046005;28;20454;-79
2021/09/18 02:11:58;;;;;;;3.85;1.55;;;;;;;13.95;76.39;100493.03;5045924;28;20075;-79
2021/09/18 02:14:23;;;;;;;2.47;1.23;;;;;;;14.00;76.71;100495.59;5045586;28;20044;-79
2021/09/18 02:16:48;;;;;;;2.90;1.33;;;;;;;14.04;76.25;100499.91;5029293;28;20045;-79
2021/09/18 02:19:14;;;;;;;2.25;1.25;;;;;;;14.09;76.18;100506.00;5048695;28;20028;-79
2021/09/18 02:21:39;;;;;;;3.05;1.33;;;;;;;14.10;76.09;100494.50;5048108;28;20041;-79
2021/09/18 02:24:04;;;;;;;3.58;1.20;;;;;;;14.12;75.96;100502.41;5034645;28;20044;-79
2021/09/18 02:26:30;;;;;;;5.65;1.10;;;;;;;14.11;75.91;100495.38;5047881;28;20036;-79
2021/09/18 02:28:55;;;;;;;2.95;1.38;;;;;;;14.03;76.15;100493.75;5044942;28;20522;-78
2021/09/18 02:31:20;;;;;;;3.53;1.20;;;;;;;14.00;76.43;100488.50;5047523;28;20498;-79
2021/09/18 02:33:46;;;;;;;2.13;1.20;;;;;;;14.05;76.22;100484.88;5044686;28;20048;-79
2021/09/18 02:36:11;;;;;;;2.97;1.30;;;;;;;14.07;76.37;100485.72;5052437;28;20029;-79
2021/09/18 02:38:36;;;;;;;4.68;1.20;;;;;;;14.09;76.00;100476.81;5045548;28;20041;-79
2021/09/18 02:41:02;;;;;;;3.00;1.27;;;;;;;14.01;76.57;100479.63;5041128;28;20101;-79
2021/09/18 02:43:27;;;;;;;2.97;1.33;;;;;;;14.01;77.00;100481.41;5046611;28;20036;-79
2021/09/18 02:45:53;;;;;;;3.22;1.65;;;;;;;14.04;76.61;100484.00;5045303;28;20041;-79
2021/09/18 02:48:19;;;;;;;3.90;2.00;;;;;;;13.98;77.13;100479.69;5047272;28;20080;-79
2021/09/18 02:50:44;;;;;;;2.75;1.35;;;;;;;14.05;76.84;100484.88;5044038;28;20041;-79
2021/09/18 02:53:09;;;;;;;4.18;1.40;;;;;;;14.09;76.84;100478.59;5047108;28;20029;-79
2021/09/18 02:55:35;;;;;;;2.72;1.20;;;;;;;14.05;76.92;100480.44;5044123;28;20484;-79
2021/09/18 02:58:01;;;;;;;3.92;1.30;;;;;;;14.05;77.23;100475.16;5047011;28;20487;-79
2021/09/18 03:00:26;;;;;;;3.38;1.25;;;;;;;14.06;77.27;100481.31;5044183;28;20112;-79
2021/09/18 03:02:51;;;;;;;4.18;1.33;;;;;;;14.06;77.47;100487.50;5045889;28;20607;-79
2021/09/18 03:05:17;;;;;;;6.57;1.60;;;;;;;13.96;78.15;100475.31;5045263;28;20041;-79
2021/09/18 03:07:42;;;;;;;2.95;1.42;;;;;;;13.90;78.66;100475.47;5045429;28;20127;-79
2021/09/18 03:10:10;;;;;;;2.72;1.40;;;;;;;13.92;78.56;100474.53;5045759;28;20033;-79
2021/09/18 03:12:35;;;;;;;4.70;1.38;;;;;;;13.86;78.93;100474.66;5044537;28;20029;-79
2021/09/18 03:15:01;;;;;;;2.60;1.38;;;;;;;13.87;78.86;100468.44;5046963;28;20497;-79
2021/09/18 03:17:26;;;;;;;4.90;1.75;;;;;;;13.81;79.24;100463.28;5056027;28;20123;-79
2021/09/18 03:19:53;;;;;;;3.65;1.30;;;;;;;13.85;79.49;100470.25;5054230;28;20117;-79
2021/09/18 03:22:19;;;;;;;1.90;1.10;;;;;;;13.82;79.67;100471.19;5033979;28;20033;-78
2021/09/18 03:24:44;;;;;;;3.15;1.35;;;;;;;13.82;79.70;100459.69;5050922;28;20046;-78
2021/09/18 03:27:09;;;;;;;2.75;1.40;;;;;;;13.81;80.15;100468.56;5045376;28;20041;-79
2021/09/18 03:29:35;;;;;;;3.90;1.23;;;;;;;13.78;80.00;100461.56;5047350;28;20035;-80
2021/09/18 03:32:01;;;;;;;2.10;1.20;;;;;;;13.81;80.02;100456.19;5045458;28;20080;-80
2021/09/18 03:34:26;;;;;;;2.80;1.23;;;;;;;13.80;80.01;100459.72;5046114;28;20033;-79
2021/09/18 03:36:51;;;;;;;4.35;1.17;;;;;;;13.79;80.28;100462.41;5044151;28;20036;-80
2021/09/18 03:39:17;;;;;;;3.00;1.30;;;;;;;13.78;80.10;100453.59;5045762;28;20044;-80
2021/09/18 03:41:42;;;;;;;3.50;1.30;;;;;;;13.78;80.22;100450.94;5045870;28;20036;-79
2021/09/18 03:44:08;;;;;;;2.13;1.10;;;;;;;13.78;80.36;100455.34;5043585;28;20498;-79
2021/09/18 03:46:33;;;;;;;4.22;1.00;;;;;;;13.76;80.03;100457.19;5045989;28;20033;-79
2021/09/18 03:48:58;;;;;;;3.97;1.20;;;;;;;13.78;79.84;100458.00;5042947;28;20035;-79
2021/09/18 03:51:24;;;;;;;6.13;1.80;;;;;;;13.73;80.09;100459.91;5045281;28;20112;-79
2021/09/18 03:53:49;;;;;;;2.70;1.10;;;;;;;13.75;79.65;100456.31;5045537;28;20064;-79
2021/09/18 03:56:14;;;;;;;2.17;1.08;;;;;;;13.74;79.69;100461.63;5046658;28;20037;-79
2021/09/18 03:58:40;;;;;;;2.15;0.90;;;;;;;13.74;79.68;100462.50;5054351;28;20070;-79
2021/09/18 04:01:05;;;;;;;2.17;0.70;;;;;;;13.70;79.25;100468.78;5046575;28;20040;-79
2021/09/18 04:03:30;;;;;;;5.00;1.30;;;;;;;13.70;79.26;100468.78;5044415;28;20049;-79
2021/09/18 04:05:56;;;;;;;2.67;0.90;;;;;;;13.72;78.95;100466.97;5048054;28;20392;-79
2021/09/18 04:08:21;;;;;;;3.80;0.90;;;;;;;13.68;79.24;100467.06;5046328;28;20067;-79
2021/09/18 04:10:46;;;;;;;2.92;0.70;;;;;;;13.70;78.81;100467.91;5045493;28;20100;-79
2021/09/18 04:13:12;;;;;;;2.20;0.82;;;;;;;13.69;78.49;100461.72;5042879;28;20037;-79
2021/09/18 04:15:37;;;;;;;2.28;0.90;;;;;;;13.69;78.75;100471.47;5045452;28;20033;-79
2021/09/18 04:18:03;;;;;;;3.13;1.00;;;;;;;13.70;78.86;100463.50;5047338;28;20127;-79
2021/09/18 04:20:28;;;;;;;2.70;0.70;;;;;;;13.77;78.40;100458.91;5041853;28;20064;-79
2021/09/18 04:22:53;;;;;;;2.72;0.70;;;;;;;13.78;78.47;100455.34;5044739;28;20060;-79
2021/09/18 04:25:19;;;;;;;2.80;0.90;;;;;;;13.78;77.62;100460.66;5042927;28;20626;-79
2021/09/18 04:27:45;;;;;;;3.10;1.00;;;;;;;13.76;77.96;100459.84;5043782;28;20410;-79
2021/09/18 04:30:11;;;;;;;2.75;1.02;;;;;;;13.79;78.04;100462.41;5042625;28;20483;-79
2021/09/18 04:32:37;;;;;;;2.40;0.88;;;;;;;13.85;77.79;100464.94;5043485;28;20037;-79
2021/09/18 04:35:02;;;;;;;2.28;0.90;;;;;;;13.81;77.55;100465.91;5043580;28;20047;-79
2021/09/18 04:37:28;;;;;;;4.68;0.70;;;;;;;13.86;77.64;100466.69;5033772;28;20124;-79
2021/09/18 04:39:53;;;;;;;2.05;0.80;;;;;;;13.87;77.60;100468.44;5046434;28;20039;-79
2021/09/18 04:42:18;;;;;;;3.33;0.95;;;;;;;13.87;77.54;100465.78;5045786;28;20041;-78
2021/09/18 04:44:44;;;;;;;2.50;0.88;;;;;;;13.85;77.62;100467.59;5044186;28;20040;-79
2021/09/18 04:47:09;;;;;;;2.00;0.93;;;;;;;13.86;77.64;100479.97;5041632;28;20033;-78
2021/09/18 04:49:35;;;;;;;2.78;1.17;;;;;;;13.90;77.46;100470.16;5044660;28;20125;-79
2021/09/18 04:52:01;;;;;;;3.60;1.42;;;;;;;13.87;77.63;100481.69;5041546;28;20403;-79
2021/09/18 04:54:26;;;;;;;3.30;0.90;;;;;;;13.86;77.46;100473.75;5044054;28;20044;-78
2021/09/18 04:56:52;;;;;;;2.65;1.00;;;;;;;13.86;77.97;100479.97;5042420;28;20030;-79
2021/09/18 04:59:17;;;;;;;3.80;0.90;;;;;;;13.90;77.64;100480.75;5043922;28;20059;-79
2021/09/18 05:01:43;;;;;;;2.95;1.00;;;;;;;13.88;77.76;100480.78;5042559;28;20045;-79
2021/09/18 05:04:08;;;;;;;3.35;1.02;;;;;;;13.93;77.67;100481.56;5050096;28;20091;-78
2021/09/18 05:06:34;;;;;;;2.55;1.25;;;;;;;13.97;77.75;100482.41;5051748;28;20046;-79
2021/09/18 05:09:00;;;;;;;4.95;1.00;;;;;;;13.97;77.66;100485.91;5043199;28;20047;-78
2021/09/18 05:11:25;;;;;;;2.97;1.10;;;;;;;13.91;77.31;100493.13;5047040;28;20037;-78
2021/09/18 05:13:50;;;;;;;2.33;0.85;;;;;;;13.89;77.49;100493.16;5050167;28;20032;-79
2021/09/18 05:16:16;;;;;;;5.60;0.90;;;;;;;13.91;77.56;100491.34;5041101;28;20037;-78
2021/09/18 05:18:41;;;;;;;1.33;0.80;;;;;;;13.98;77.64;100489.44;5044585;28;20064;-79
2021/09/18 05:21:06;;;;;;;2.42;1.00;;;;;;;14.00;77.20;100488.50;5041523;28;20064;-78
2021/09/18 05:23:32;;;;;;;3.28;0.90;;;;;;;13.97;77.32;100491.22;5044026;28;20025;-79
2021/09/18 05:25:57;;;;;;;3.50;1.02;;;;;;;14.07;76.93;100491.91;5042012;28;20113;-79
2021/09/18 05:28:22;;;;;;;3.35;0.98;;;;;;;14.05;76.95;100495.50;5043498;28;20392;-79
2021/09/18 05:30:48;;;;;;;3.35;1.00;;;;;;;14.05;76.85;100495.50;5049293;28;20656;-79
2021/09/18 05:33:13;;;;;;;3.00;0.90;;;;;;;14.08;76.98;100495.44;5042429;28;20483;-79
2021/09/18 05:35:38;;;;;;;2.72;0.98;;;;;;;14.13;76.78;100499.72;5042384;28;20116;-79
2021/09/18 05:38:04;;;;;;;3.63;0.90;;;;;;;14.18;76.54;100502.28;5044539;28;20053;-79
2021/09/18 05:40:30;;;;;;;3.45;1.00;;;;;;;14.29;75.88;100504.72;5046015;28;20038;-80
2021/09/18 05:42:55;;;;;;;2.53;0.90;;;;;;;14.24;76.50;100507.47;5051510;28;20037;-79
2021/09/18 05:45:21;;;;;;;2.17;1.10;;;;;;;14.27;76.52;100504.75;5054564;28;20419;-79
2021/09/18 05:47:46;;;;;;;6.00;1.10;;;;;;;14.24;76.01;100510.97;5049461;28;20045;-80
2021/09/18 05:50:11;;;;;;;4.35;1.00;;;;;;;14.21;76.16;100518.16;5046485;28;20407;-80
2021/09/18 05:52:37;;;;;;;4.43;1.05;;;;;;;14.21;76.19;100518.16;5048350;28;20593;-81
2021/09/18 05:55:03;;;;;;;2.33;0.90;;;;;;;14.19;76.06;100517.31;5045784;28;20355;-79
2021/09/18 05:57:28;;;;;;;0.98;0.60;;;;;;;14.18;76.32;100513.78;5053879;28;20115;-79
2021/09/18 05:59:53;;;;;;;2.47;0.90;;;;;;;14.20;76.27;100519.94;5046887;28;20072;-80
2021/09/18 06:02:19;;;;;;;2.95;1.10;;;;;;;14.28;75.99;100518.88;5037420;28;20038;-80
2021/09/18 06:04:44;;;;;;;3.17;1.35;;;;;;;14.25;75.79;100514.50;5047807;28;20039;-80
2021/09/18 06:07:09;;;;;;;4.13;1.23;;;;;;;14.28;75.72;100514.47;5037062;28;20833;-80
2021/09/18 06:09:35;;;;;;;2.20;0.90;;;;;;;14.30;75.19;100512.63;5048819;28;20499;-79
2021/09/18 06:12:00;;;;;;;1.98;0.80;;;;;;;14.32;75.31;100510.81;5045836;28;20064;-80
2021/09/18 06:14:26;;;;;;;3.65;1.42;;;;;;;14.38;75.26;100510.72;5048929;28;20061;-80
2021/09/18 06:16:51;;;;;;;3.65;1.02;;;;;;;14.46;74.70;100514.06;5048496;28;20407;-79
2021/09/18 06:19:18;;;;;;;2.38;0.85;;;;;;;14.45;74.82;100506.97;5048990;28;20040;-80
2021/09/18 06:21:45;;;;;;;2.38;1.00;;;;;;;14.60;73.92;100516.44;5046579;28;20038;-80
2021/09/18 06:24:11;;;;;;;2.58;1.00;;;;;;;14.52;74.08;100507.72;5038845;28;20033;-80
2021/09/18 06:26:38;;;;;;;2.22;1.02;;;;;;;14.58;74.31;100512.06;5046758;28;20123;-80
2021/09/18 06:29:04;;;;;;;3.50;1.10;;;;;;;14.64;73.81;100510.13;5047516;28;20033;-80
2021/09/18 06:31:30;;;;;;;4.03;1.20;;;;;;;14.62;73.53;100514.63;5045461;28;20033;-80
2021/09/18 06:33:55;;;;;;;7.00;1.30;;;;;;;14.65;73.49;100513.69;5046687;28;20109;-80
2021/09/18 06:36:20;;;;;;;3.47;1.20;;;;;;;14.77;73.21;100516.03;5047536;28;20076;-80
2021/09/18 06:38:46;;;;;;;2.75;1.02;;;;;;;14.75;72.58;100523.19;5046394;28;20053;-80
2021/09/18 06:41:11;;;;;;;3.50;1.30;;;;;;;14.71;73.13;100518.84;5048239;28;20037;-80
2021/09/18 06:43:38;;;;;;;3.35;1.10;;;;;;;14.71;72.81;100524.16;5060797;28;20047;-80
2021/09/18 06:46:03;;;;;;;3.40;1.05;;;;;;;14.69;72.24;100526.81;5053734;28;20048;-80
2021/09/18 06:48:29;;;;;;;3.08;1.33;;;;;;;14.76;72.25;100526.69;5065317;28;20032;-81
2021/09/18 06:50:54;;;;;;;3.85;1.20;;;;;;;14.79;72.23;100522.19;5053555;28;20098;-81
2021/09/18 06:53:20;;;;;;;3.70;1.35;;;;;;;14.77;72.37;100516.03;5061733;28;20037;-81
2021/09/18 06:55:45;;;;;;;3.25;1.30;;;;;;;14.86;72.07;100517.59;5048713;28;20060;-78
2021/09/18 06:58:11;;;;;;;1.73;0.80;;;;;;;14.81;71.77;100525.69;5047876;28;20044;-78
2021/09/18 07:00:36;;;;;;;2.13;0.80;;;;;;;14.75;71.93;100519.63;5047919;28;20043;-81
2021/09/18 07:03:02;;;;;;;4.60;1.00;;;;;;;14.77;71.32;100517.81;5055550;28;20037;-81
2021/09/18 07:05:27;;;;;;;3.55;1.63;;;;;;;14.84;72.00;100520.28;5056700;28;20040;-81
2021/09/18 07:07:52;;;;;;;2.50;1.08;;;;;;;14.85;72.08;100527.34;5054869;28;20033;-81
2021/09/18 07:10:18;;;;;;;3.20;0.95;;;;;;;14.87;71.48;100536.16;5049496;28;20100;-81
2021/09/18 07:12:43;;;;;;;2.75;1.23;;;;;;;14.88;71.88;100531.72;5047418;28;20423;-81
2021/09/18 07:15:10;;;;;;;1.77;1.20;;;;;;;14.90;71.67;100535.22;5043895;28;20033;-81
2021/09/18 07:17:35;;;;;;;2.78;0.90;;;;;;;14.96;71.04;100529.78;5047447;28;20050;-82
2021/09/18 07:20:01;;;;;;;1.55;0.68;;;;;;;14.96;71.12;100531.53;5059174;28;20115;-81
2021/09/18 07:22:28;;;;;;;3.53;0.90;;;;;;;14.93;71.14;100536.91;5065377;28;20033;-81
2021/09/18 07:24:53;;;;;;;2.08;0.90;;;;;;;14.87;71.03;100536.16;5047025;28;20479;-81
2021/09/18 07:27:19;;;;;;;4.13;0.98;;;;;;;14.84;71.51;100530.91;5055708;28;20037;-80
2021/09/18 07:29:45;;;;;;;3.80;1.08;;;;;;;14.90;71.33;100532.56;5053614;28;20392;-80
2021/09/18 07:32:11;;;;;;;4.80;1.40;;;;;;;14.80;71.44;100531.91;5052543;28;20074;-80
2021/09/18 07:34:37;;;;;;;3.40;1.25;;;;;;;14.73;72.15;100543.59;5048887;28;20615;-80
2021/09/18 07:37:02;;;;;;;3.67;0.90;;;;;;;14.74;72.39;100537.34;5048337;28;20044;-80
2021/09/18 07:39:28;;;;;;;4.75;1.38;;;;;;;14.74;72.33;100549.78;5054662;28;20039;-80
2021/09/18 07:41:54;;;;;;;3.20;1.27;;;;;;;14.72;73.07;100551.56;5053289;28;20041;-80
2021/09/18 07:44:20;;;;;;;3.50;1.30;;;;;;;14.63;73.74;100556.19;5049568;28;20029;-80
2021/09/18 07:46:45;;;;;;;5.03;1.63;;;;;;;14.68;74.54;100558.75;5050640;28;20047;-80
2021/09/18 07:49:11;;;;;;;3.67;1.67;;;;;;;14.56;76.38;100556.38;5044640;28;20153;-80
2021/09/18 07:51:36;;;;;;;3.25;1.67;;;;;;;14.42;77.97;100556.66;5046379;28;20037;-80
2021/09/18 07:54:02;;;;;;;4.22;1.85;;;;;;;14.22;79.98;100554.41;5058094;28;20048;-80
2021/09/18 07:56:27;;;;;;;4.03;1.92;;;;;;;14.11;80.84;100564.38;5054500;28;20047;-79
2021/09/18 07:58:54;;;;;;;4.60;1.70;;;;;;;13.98;82.00;100559.28;5061434;28;20048;-80
2021/09/18 08:01:20;;;;;;;5.28;2.15;;;;;;;13.94;81.63;100556.75;5053177;28;20502;-79
2021/09/18 08:03:46;;;;;;;4.10;1.67;;;;;;;14.02;80.81;100555.69;5056585;28;20067;-80
2021/09/18 08:06:11;;;;;;;4.53;1.85;;;;;;;14.14;80.41;100551.03;5052322;28;20029;-80
2021/09/18 08:08:37;;;;;;;4.47;1.63;;;;;;;14.22;78.46;100557.91;5049785;28;20041;-80
2021/09/18 08:11:02;;;;;;;3.92;1.73;;;;;;;14.28;78.44;100556.94;5054654;28;20033;-80
2021/09/18 08:13:27;;;;;;;4.10;1.65;;;;;;;14.36;78.44;100560.31;5057497;28;20402;-81
2021/09/18 08:15:53;;;;;;;4.50;1.70;;;;;;;14.51;77.68;100555.56;5047963;28;20075;-81
2021/09/18 08:18:18;;;;;;;5.28;2.17;;;;;;;14.49;77.54;100566.22;5049714;28;20103;-81
2021/09/18 08:20:43;;;;;;;5.95;2.58;;;;;;;14.45;76.79;100562.75;5036378;28;20044;-81
2021/09/18 08:23:09;;;;;;;6.18;3.05;;;;;;;14.39;76.91;100562.88;5053075;28;20029;-81
2021/09/18 08:25:34;;;;;;;6.15;2.92;;;;;;;14.42;76.21;100565.47;5050574;28;20033;-81
2021/09/18 08:28:01;;;;;;;4.90;2.58;;;;;;;14.46;76.43;100568.94;5044551;28;20048;-81
2021/09/18 08:30:26;;;;;;;5.30;2.55;;;;;;;14.44;76.68;100568.97;5063976;28;20044;-81
2021/09/18 08:32:52;;;;;;;4.55;2.72;;;;;;;14.63;76.46;100571.25;5064762;28;20035;-81
2021/09/18 08:35:18;;;;;;;5.22;2.83;;;;;;;14.71;76.17;100568.44;5062539;28;20052;-80
2021/09/18 08:37:43;;;;;;;4.80;2.70;;;;;;;14.68;76.05;100574.69;5061982;28;20091;-80
2021/09/18 08:40:09;;;;;;;6.05;3.20;;;;;;;14.68;76.53;100572.91;5062627;28;20036;-81
2021/09/18 08:42:38;;;;;;;5.70;3.20;;;;;;;14.73;76.49;100579.91;5065674;28;20037;-81
2021/09/18 08:45:06;;;;;;;6.15;2.60;;;;;;;14.68;76.00;100574.69;5056710;28;20134;-81
2021/09/18 08:47:32;;;;;;;6.15;3.20;;;;;;;14.60;76.65;100580.19;5042665;28;20128;-81
2021/09/18 08:49:58;;;;;;;4.55;3.00;;;;;;;14.66;76.58;100576.50;5056788;28;20045;-81
2021/09/18 08:52:24;;;;;;;6.18;3.17;;;;;;;14.62;76.62;100582.81;5057023;28;20051;-80
2021/09/18 08:54:49;;;;;;;7.18;3.58;;;;;;;14.60;76.60;100577.53;5059471;28;20041;-81
2021/09/18 08:57:14;;;;;;;5.03;3.95;;;;;;;14.58;77.30;100581.97;5054278;28;20490;-81
2021/09/18 08:59:41;;;;;;;5.22;4.13;;;;;;;14.61;77.89;100586.34;5059421;28;20037;-81
2021/09/18 09:02:16;;;;;;;6.05;3.78;;;;;;;14.58;78.28;100587.28;5063314;28;20036;-82
2021/09/18 09:04:43;;;;;;;6.78;4.57;;;;;;;14.48;78.98;100585.72;5060552;28;20029;-80
2021/09/18 09:07:11;;;;;;;6.03;4.25;;;;;;;14.53;79.54;100589.16;5043359;28;20037;-80
2021/09/18 09:09:59;;;;;;;6.88;4.70;;;;;;;14.60;80.78;100596.13;5048732;28;20064;-80
2021/09/18 09:12:35;;;;;;;6.85;5.00;;;;;;;14.52;80.51;100582.09;5065768;28;20099;-80
2021/09/18 09:15:04;;;;;;;6.50;4.35;;;;;;;14.52;80.32;100591.84;5048049;28;20033;-81
2021/09/18 09:17:32;;;;;;;6.03;4.57;;;;;;;14.61;80.37;100586.34;5056362;28;20100;-80
2021/09/18 09:19:58;;;;;;;8.43;3.90;;;;;;;14.79;79.81;100590.38;5049266;28;20045;-81
2021/09/18 09:22:44;;;;;;;5.07;3.97;;;;;;;14.88;78.89;100583.09;5038138;28;20070;-80
2021/09/18 09:25:23;;;;;;;7.03;3.65;;;;;;;15.02;78.51;100584.56;5055214;28;20041;-81
2021/09/18 09:27:48;;;;;;;8.10;3.70;;;;;;;15.03;77.83;100594.25;5057134;28;20068;-80
2021/09/18 09:30:25;;;;;;;5.55;3.47;;;;;;;15.01;78.57;100590.75;5035687;28;20025;-80
2021/09/18 09:32:51;;;;;;;5.10;3.45;;;;;;;15.07;77.93;100596.81;5053071;28;20072;-80
2021/09/18 09:35:16;;;;;;;4.30;3.13;;;;;;;15.07;77.39;100596.81;5046882;28;20038;-80
2021/09/18 09:37:55;;;;;;;5.18;3.28;;;;;;;15.18;77.38;100599.22;5050489;28;20040;-80
2021/09/18 09:40:39;;;;;;;4.97;3.00;;;;;;;15.13;77.49;100603.78;5057922;28;20033;-80
2021/09/18 09:43:07;;;;;;;5.13;2.97;;;;;;;15.02;77.59;100603.16;5051257;28;20029;-80
2021/09/18 09:45:33;;;;;;;4.35;3.15;;;;;;;14.97;78.28;100594.41;5054675;28;20067;-80
2021/09/18 09:48:13;;;;;;;5.82;3.20;;;;;;;14.97;78.05;100594.41;5050891;28;20041;-79
2021/09/18 09:50:42;;;;;;;5.85;3.58;;;;;;;14.92;78.35;100596.31;5055321;28;20037;-79
2021/09/18 09:53:23;;;;;;;6.40;3.72;;;;;;;15.18;77.66;100596.56;5051233;28;20044;-80
2021/09/18 09:55:49;;;;;;;7.22;2.80;;;;;;;15.29;77.63;100597.16;5050642;28;20053;-80
2021/09/18 09:58:14;;;;;;;4.53;2.78;;;;;;;15.33;77.01;100601.50;5053883;28;20114;-80
2021/09/18 10:00:43;;;;;;;3.95;2.70;;;;;;;15.21;77.00;100603.59;5052593;28;20151;-80
2021/09/18 10:03:09;;;;;;;3.88;2.13;;;;;;;15.22;77.66;100600.00;5052443;28;20030;-80
2021/09/18 10:05:36;;;;;;;4.78;2.90;;;;;;;15.28;77.30;100600.75;5052376;28;20095;-79
2021/09/18 10:08:03;;;;;;;4.32;2.83;;;;;;;15.39;77.33;100592.50;5059492;28;20429;-79
2021/09/18 10:10:29;;;;;;;4.63;2.72;;;;;;;15.43;77.16;100595.94;5055048;28;20040;-80
2021/09/18 10:12:56;;;;;;;5.82;2.92;;;;;;;15.61;76.98;100599.94;5052611;28;20116;-80
2021/09/18 10:15:27;;;;;;;4.10;2.42;;;;;;;15.71;76.15;100594.34;5051576;28;20048;-80
2021/09/18 10:17:55;;;;;;;6.25;2.78;;;;;;;15.49;77.76;100596.69;5051975;28;20041;-80
2021/09/18 10:25:38;;;;;;;9.40;4.53;;;;;;;15.42;78.08;100597.72;5029791;28;20037;-80
2021/09/18 10:28:09;;;;;;;6.22;3.58;;;;;;;15.52;78.43;100601.03;5031478;28;20506;-80
2021/09/18 10:30:59;;;;;;;4.90;3.47;;;;;;;15.58;78.14;100598.22;5045731;28;20041;-80
2021/09/18 10:33:49;;;;;;;8.32;4.18;;;;;;;15.67;78.09;100598.00;5038293;28;20056;-80
2021/09/18 10:36:30;;;;;;;5.80;2.92;;;;;;;15.71;77.38;100605.00;5046410;28;20046;-80
2021/09/18 10:39:24;;;;;;;5.43;3.22;;;;;;;15.73;77.23;100603.19;5048107;28;20131;-80
2021/09/18 10:41:52;;;;;;;6.95;3.00;;;;;;;15.90;77.39;100609.84;5033310;28;20136;-80
2021/09/18 10:44:20;;;;;;;4.38;2.80;;;;;;;15.99;77.06;100612.25;5050179;28;20504;-81
2021/09/18 10:46:50;;;;;;;6.22;3.42;;;;;;;15.94;77.73;100612.38;5051076;28;20079;-80
2021/09/18 10:49:34;;;;;;;5.85;2.53;;;;;;;16.00;78.02;100614.00;5051541;28;20036;-81
2021/09/18 10:52:28;;;;;;;5.75;3.15;;;;;;;15.90;78.93;100613.41;5049915;28;20041;-81
2021/09/18 10:54:59;;;;;;;5.65;3.30;;;;;;;15.89;78.23;100614.28;5047045;28;20096;-80
2021/09/18 10:57:25;;;;;;;6.60;3.17;;;;;;;15.87;79.30;100616.13;5048740;28;20077;-81
2021/09/18 10:59:51;;;;;;;3.88;2.58;;;;;;;15.97;78.61;100612.28;5049823;28;20084;-80
2021/09/18 11:02:32;;;;;;;5.15;2.50;;;;;;;16.01;78.05;100618.44;5048563;28;20454;-80
2021/09/18 11:04:58;;;;;;;3.20;2.28;;;;;;;15.92;78.71;100614.19;5037042;28;20507;-80
2021/09/18 11:07:44;;;;;;;5.40;2.90;;;;;;;15.78;80.10;100614.56;5044427;28;20025;-80
2021/09/18 11:10:30;;;;;;;4.63;3.08;;;;;;;15.60;81.67;100622.13;5037735;28;20059;-80
2021/09/18 11:13:08;;;;;;;3.60;3.08;;;;;;;15.86;81.58;100614.38;5018493;28;20544;-81
2021/09/18 11:15:52;;;;;;;3.58;2.58;;;;;;;16.04;80.96;100617.47;5032853;28;20048;-80
2021/09/18 11:18:37;;;;;;;5.63;3.17;;;;;;;16.12;81.19;100618.13;5046412;28;20044;-80
2021/09/18 11:21:24;;;;;;;5.18;4.03;;;;;;;16.13;80.74;100622.53;5046933;28;20040;-79
2021/09/18 11:24:21;;;;;;;6.90;3.72;;;;;;;16.07;82.06;100626.22;5046523;28;20032;-80
2021/09/18 11:26:56;;;;;;;3.35;2.70;;;;;;;16.06;81.02;100616.50;5032941;28;20087;-79
2021/09/18 11:29:35;;;;;;;3.85;3.42;;;;;;;16.03;81.98;100616.56;5043867;28;20068;-80
2021/09/18 11:32:12;;;;;;;4.20;3.10;;;;;;;16.08;81.87;100611.13;5043736;28;20033;-80